SWA3448 KMKE-KMCO
Flight info
| Callsign | SWA3448 |
|---|---|
| Flight time | 2h 17m |
| Altitude | 37000 |
| Route | UECKR6 DELHI TTH RAMRD JILIS THRSR ZJAYX GRNCH5 |
| Aircraft | B738/M-SADE2E3GIJ4RWZ/LB1D1 |
Departure
| Time | 2026-04-25 17:11 |
|---|---|
| Airport | General Mitchell International Airport (KMKE) |
Arrival
| Time | 2026-04-25 19:28 |
|---|---|
| Airport | Orlando International Airport (KMCO) |
| Time | Latitude | Longitude | Altitude | Speed | Heading |
|---|---|---|---|---|---|
| 2026-04-25 16:51 | 42.95078 | -87.90140 | 716 ft | 0 kts | 116° |
| 2026-04-25 17:02 | 42.95078 | -87.90141 | 721 ft | 1 kts | 116° |
| 2026-04-25 17:03 | 42.95087 | -87.90167 | 717 ft | 2 kts | 116° |
| 2026-04-25 17:03 | 42.95094 | -87.90187 | 717 ft | 2 kts | 116° |
| 2026-04-25 17:03 | 42.95102 | -87.90207 | 717 ft | 2 kts | 116° |
| 2026-04-25 17:03 | 42.95102 | -87.90208 | 715 ft | 0 kts | 116° |
| 2026-04-25 17:07 | 42.95117 | -87.90172 | 714 ft | 10 kts | 41° |
| 2026-04-25 17:07 | 42.95195 | -87.90169 | 714 ft | 16 kts | 348° |
| 2026-04-25 17:07 | 42.95258 | -87.90254 | 714 ft | 6 kts | 271° |
| 2026-04-25 17:08 | 42.95242 | -87.90325 | 710 ft | 10 kts | 259° |
| 2026-04-25 17:08 | 42.95217 | -87.90442 | 713 ft | 16 kts | 262° |
| 2026-04-25 17:08 | 42.95315 | -87.90524 | 700 ft | 21 kts | 356° |
| 2026-04-25 17:08 | 42.95459 | -87.90529 | 713 ft | 20 kts | 359° |
| 2026-04-25 17:09 | 42.95599 | -87.90526 | 714 ft | 20 kts | 14° |
| 2026-04-25 17:09 | 42.95707 | -87.90416 | 711 ft | 19 kts | 40° |
| 2026-04-25 17:09 | 42.95769 | -87.90284 | 694 ft | 16 kts | 112° |
| 2026-04-25 17:09 | 42.95747 | -87.90242 | 693 ft | 0 kts | 131° |
| 2026-04-25 17:10 | 42.95746 | -87.90239 | 693 ft | 0 kts | 130° |
| 2026-04-25 17:10 | 42.95699 | -87.90168 | 693 ft | 30 kts | 133° |
| 2026-04-25 17:10 | 42.95362 | -87.89658 | 696 ft | 116 kts | 131° |
| 2026-04-25 17:10 | 42.94667 | -87.88572 | 909 ft | 178 kts | 127° |
| 2026-04-25 17:11 | 42.93836 | -87.87309 | 2470 ft | 175 kts | 131° |
| 2026-04-25 17:11 | 42.93001 | -87.85927 | 3239 ft | 208 kts | 131° |
| 2026-04-25 17:11 | 42.91995 | -87.84294 | 3570 ft | 239 kts | 132° |
| 2026-04-25 17:11 | 42.90769 | -87.82719 | 4020 ft | 246 kts | 147° |
| 2026-04-25 17:12 | 42.89305 | -87.81459 | 4510 ft | 251 kts | 152° |
| 2026-04-25 17:12 | 42.87787 | -87.80232 | 5052 ft | 254 kts | 152° |
| 2026-04-25 17:12 | 42.86261 | -87.78981 | 5624 ft | 257 kts | 151° |
| 2026-04-25 17:12 | 42.84704 | -87.77679 | 6056 ft | 270 kts | 151° |
| 2026-04-25 17:13 | 42.83072 | -87.76290 | 6691 ft | 281 kts | 150° |
| 2026-04-25 17:13 | 42.82513 | -87.75810 | 7010 ft | 280 kts | 150° |
| 2026-04-25 17:13 | 42.79791 | -87.73447 | 8652 ft | 281 kts | 150° |
| 2026-04-25 17:13 | 42.78139 | -87.72005 | 9592 ft | 283 kts | 151° |
| 2026-04-25 17:14 | 42.76470 | -87.70545 | 10427 ft | 289 kts | 151° |
| 2026-04-25 17:14 | 42.74706 | -87.69006 | 10698 ft | 315 kts | 150° |
| 2026-04-25 17:14 | 42.72786 | -87.67331 | 10939 ft | 338 kts | 150° |
| 2026-04-25 17:14 | 42.70773 | -87.65577 | 11547 ft | 346 kts | 152° |
| 2026-04-25 17:15 | 42.68593 | -87.64338 | 12334 ft | 343 kts | 171° |
| 2026-04-25 17:15 | 42.66229 | -87.64013 | 13208 ft | 342 kts | 179° |
| 2026-04-25 17:15 | 42.63840 | -87.63871 | 13954 ft | 346 kts | 179° |
| 2026-04-25 17:15 | 42.61416 | -87.63741 | 14624 ft | 350 kts | 179° |
| 2026-04-25 17:16 | 42.58972 | -87.63589 | 15334 ft | 353 kts | 179° |
| 2026-04-25 17:16 | 42.56505 | -87.63416 | 16036 ft | 356 kts | 179° |
| 2026-04-25 17:16 | 42.54012 | -87.63234 | 16710 ft | 360 kts | 179° |
| 2026-04-25 17:16 | 42.51506 | -87.63041 | 17386 ft | 363 kts | 179° |
| 2026-04-25 17:17 | 42.48968 | -87.62834 | 18064 ft | 366 kts | 179° |
| 2026-04-25 17:17 | 42.46407 | -87.62626 | 18682 ft | 370 kts | 179° |
| 2026-04-25 17:17 | 42.43825 | -87.62418 | 19254 ft | 373 kts | 179° |
| 2026-04-25 17:17 | 42.41272 | -87.62465 | 19814 ft | 373 kts | 189° |
| 2026-04-25 17:18 | 42.38699 | -87.63061 | 20413 ft | 374 kts | 192° |
| 2026-04-25 17:18 | 42.36118 | -87.63689 | 20972 ft | 378 kts | 191° |
| 2026-04-25 17:18 | 42.33515 | -87.64276 | 21495 ft | 382 kts | 191° |
| 2026-04-25 17:18 | 42.30899 | -87.64966 | 22014 ft | 384 kts | 199° |
| 2026-04-25 17:19 | 42.28402 | -87.66295 | 22551 ft | 385 kts | 204° |
| 2026-04-25 17:19 | 42.25930 | -87.67747 | 23075 ft | 388 kts | 204° |
| 2026-04-25 17:19 | 42.23440 | -87.69217 | 23546 ft | 393 kts | 204° |
| 2026-04-25 17:19 | 42.20914 | -87.70689 | 23953 ft | 396 kts | 204° |
| 2026-04-25 17:20 | 42.18402 | -87.72133 | 24368 ft | 399 kts | 204° |
| 2026-04-25 17:20 | 42.15840 | -87.73592 | 24811 ft | 400 kts | 204° |
| 2026-04-25 17:20 | 42.13254 | -87.75058 | 25207 ft | 403 kts | 204° |
| 2026-04-25 17:20 | 42.10655 | -87.76529 | 25598 ft | 406 kts | 204° |
| 2026-04-25 17:21 | 42.08040 | -87.77895 | 25978 ft | 410 kts | 197° |
| 2026-04-25 17:21 | 42.05199 | -87.78428 | 26357 ft | 415 kts | 184° |
| 2026-04-25 17:21 | 42.02288 | -87.78460 | 26741 ft | 418 kts | 182° |
| 2026-04-25 17:21 | 41.99370 | -87.78466 | 27085 ft | 421 kts | 183° |
| 2026-04-25 17:22 | 41.96423 | -87.78511 | 27436 ft | 424 kts | 183° |
| 2026-04-25 17:22 | 41.95465 | -87.78533 | 27555 ft | 424 kts | 184° |
| 2026-04-25 17:22 | 41.90491 | -87.78214 | 28117 ft | 432 kts | 174° |
| 2026-04-25 17:22 | 41.87549 | -87.77569 | 28449 ft | 435 kts | 173° |
| 2026-04-25 17:23 | 41.84559 | -87.76830 | 28778 ft | 438 kts | 172° |
| 2026-04-25 17:23 | 41.81548 | -87.76070 | 29099 ft | 440 kts | 172° |
| 2026-04-25 17:23 | 41.78525 | -87.75320 | 29400 ft | 443 kts | 173° |
| 2026-04-25 17:23 | 41.75483 | -87.74587 | 29692 ft | 445 kts | 173° |
| 2026-04-25 17:24 | 41.72410 | -87.73865 | 29991 ft | 447 kts | 173° |
| 2026-04-25 17:24 | 41.69335 | -87.73157 | 30265 ft | 449 kts | 173° |
| 2026-04-25 17:24 | 41.66288 | -87.72464 | 30528 ft | 450 kts | 173° |
| 2026-04-25 17:24 | 41.63198 | -87.71765 | 30880 ft | 449 kts | 174° |
| 2026-04-25 17:25 | 41.60109 | -87.71067 | 31299 ft | 447 kts | 174° |
| 2026-04-25 17:25 | 41.57045 | -87.70376 | 31702 ft | 445 kts | 174° |
| 2026-04-25 17:25 | 41.53984 | -87.69687 | 32037 ft | 445 kts | 174° |
| 2026-04-25 17:25 | 41.50961 | -87.69007 | 32343 ft | 446 kts | 174° |
| 2026-04-25 17:26 | 41.47891 | -87.68317 | 32719 ft | 444 kts | 174° |
| 2026-04-25 17:26 | 41.44851 | -87.67634 | 33116 ft | 442 kts | 174° |
| 2026-04-25 17:26 | 41.41810 | -87.66951 | 33473 ft | 442 kts | 174° |
| 2026-04-25 17:26 | 41.38782 | -87.66271 | 33782 ft | 442 kts | 174° |
| 2026-04-25 17:27 | 41.35744 | -87.65591 | 34116 ft | 441 kts | 175° |
| 2026-04-25 17:27 | 41.32713 | -87.64912 | 34432 ft | 440 kts | 175° |
| 2026-04-25 17:27 | 41.29737 | -87.64246 | 34690 ft | 440 kts | 175° |
| 2026-04-25 17:27 | 41.28714 | -87.64017 | 34759 ft | 440 kts | 175° |
| 2026-04-25 17:28 | 41.23692 | -87.62897 | 35192 ft | 440 kts | 175° |
| 2026-04-25 17:28 | 41.20672 | -87.62223 | 35478 ft | 439 kts | 175° |
| 2026-04-25 17:28 | 41.17661 | -87.61552 | 35732 ft | 439 kts | 175° |
| 2026-04-25 17:28 | 41.14642 | -87.60880 | 35964 ft | 440 kts | 175° |
| 2026-04-25 17:29 | 41.11626 | -87.60209 | 36224 ft | 439 kts | 175° |
| 2026-04-25 17:29 | 41.08607 | -87.59537 | 36497 ft | 438 kts | 175° |
| 2026-04-25 17:29 | 41.05601 | -87.58870 | 36739 ft | 438 kts | 175° |
| 2026-04-25 17:29 | 41.02591 | -87.58202 | 36952 ft | 439 kts | 175° |
| 2026-04-25 17:30 | 40.96574 | -87.56871 | 37033 ft | 441 kts | 175° |
| 2026-04-25 17:30 | 40.90522 | -87.55532 | 37021 ft | 439 kts | 175° |
| 2026-04-25 17:31 | 40.87512 | -87.54866 | 37208 ft | 440 kts | 174° |
| 2026-04-25 17:31 | 40.84458 | -87.54194 | 37121 ft | 447 kts | 174° |
| 2026-04-25 17:31 | 40.78234 | -87.52828 | 37038 ft | 458 kts | 174° |
| 2026-04-25 17:32 | 40.71915 | -87.51438 | 37017 ft | 460 kts | 174° |
| 2026-04-25 17:32 | 40.65638 | -87.50056 | 37015 ft | 460 kts | 174° |
| 2026-04-25 17:33 | 40.59326 | -87.48672 | 37012 ft | 459 kts | 174° |
| 2026-04-25 17:33 | 40.54077 | -87.47524 | 37013 ft | 459 kts | 174° |
| 2026-04-25 17:34 | 40.47774 | -87.46148 | 37021 ft | 458 kts | 174° |
| 2026-04-25 17:34 | 40.41495 | -87.44780 | 37025 ft | 457 kts | 174° |
| 2026-04-25 17:35 | 40.35218 | -87.43415 | 37030 ft | 456 kts | 174° |
| 2026-04-25 17:35 | 40.28989 | -87.42063 | 37036 ft | 456 kts | 175° |
| 2026-04-25 17:36 | 40.22731 | -87.40708 | 37034 ft | 455 kts | 175° |
| 2026-04-25 17:36 | 40.16485 | -87.39357 | 37035 ft | 455 kts | 175° |
| 2026-04-25 17:37 | 40.10230 | -87.38007 | 37031 ft | 455 kts | 175° |
| 2026-04-25 17:37 | 40.03979 | -87.36661 | 37016 ft | 455 kts | 175° |
| 2026-04-25 17:38 | 39.98779 | -87.35542 | 37014 ft | 455 kts | 175° |
| 2026-04-25 17:38 | 39.91488 | -87.33978 | 36994 ft | 456 kts | 175° |
| 2026-04-25 17:39 | 39.85217 | -87.32634 | 36995 ft | 456 kts | 175° |
| 2026-04-25 17:39 | 39.78986 | -87.31301 | 36998 ft | 456 kts | 175° |
| 2026-04-25 17:40 | 39.72715 | -87.29963 | 36991 ft | 457 kts | 175° |
| 2026-04-25 17:40 | 39.66434 | -87.28624 | 36990 ft | 457 kts | 175° |
| 2026-04-25 17:41 | 39.60150 | -87.27288 | 36990 ft | 457 kts | 175° |
| 2026-04-25 17:41 | 39.53900 | -87.25960 | 36994 ft | 457 kts | 175° |
| 2026-04-25 17:42 | 39.47614 | -87.24559 | 36996 ft | 459 kts | 172° |
| 2026-04-25 17:42 | 39.41396 | -87.22610 | 37000 ft | 460 kts | 170° |
| 2026-04-25 17:43 | 39.35187 | -87.20502 | 36996 ft | 460 kts | 170° |
| 2026-04-25 17:43 | 39.29027 | -87.18444 | 36986 ft | 460 kts | 170° |
| 2026-04-25 17:44 | 39.22798 | -87.16408 | 36977 ft | 460 kts | 171° |
| 2026-04-25 17:44 | 39.16588 | -87.14398 | 36970 ft | 460 kts | 171° |
| 2026-04-25 17:45 | 39.11425 | -87.12731 | 36957 ft | 460 kts | 171° |
| 2026-04-25 17:45 | 39.04203 | -87.10402 | 36961 ft | 460 kts | 171° |
| 2026-04-25 17:46 | 38.97994 | -87.08403 | 36959 ft | 460 kts | 171° |
| 2026-04-25 17:46 | 38.91826 | -87.06421 | 36964 ft | 459 kts | 171° |
| 2026-04-25 17:47 | 38.85618 | -87.04428 | 36967 ft | 459 kts | 171° |
| 2026-04-25 17:47 | 38.79414 | -87.02441 | 36966 ft | 459 kts | 171° |
| 2026-04-25 17:48 | 38.70111 | -86.99468 | 36969 ft | 459 kts | 171° |
| 2026-04-25 17:49 | 38.63909 | -86.97491 | 36966 ft | 459 kts | 171° |
| 2026-04-25 17:49 | 38.57711 | -86.95518 | 36965 ft | 459 kts | 171° |
| 2026-04-25 17:50 | 38.51553 | -86.93562 | 36953 ft | 459 kts | 171° |
| 2026-04-25 17:50 | 38.45350 | -86.91594 | 36959 ft | 459 kts | 171° |
| 2026-04-25 17:51 | 38.39146 | -86.89630 | 36967 ft | 459 kts | 171° |
| 2026-04-25 17:51 | 38.32943 | -86.87670 | 36969 ft | 459 kts | 171° |
| 2026-04-25 17:52 | 38.26742 | -86.85713 | 36970 ft | 459 kts | 171° |
| 2026-04-25 17:52 | 38.20579 | -86.83772 | 36967 ft | 459 kts | 171° |
| 2026-04-25 17:53 | 38.14373 | -86.81821 | 36958 ft | 459 kts | 171° |
| 2026-04-25 17:53 | 38.08166 | -86.79873 | 36962 ft | 459 kts | 171° |
| 2026-04-25 17:54 | 38.01965 | -86.77931 | 36948 ft | 459 kts | 171° |
| 2026-04-25 17:54 | 37.95770 | -86.75993 | 36940 ft | 459 kts | 171° |
| 2026-04-25 17:55 | 37.89561 | -86.74054 | 36934 ft | 459 kts | 171° |
| 2026-04-25 17:55 | 37.83417 | -86.72140 | 36932 ft | 459 kts | 171° |
| 2026-04-25 17:56 | 37.77208 | -86.70208 | 36924 ft | 459 kts | 171° |
| 2026-04-25 17:56 | 37.70987 | -86.68276 | 36927 ft | 459 kts | 172° |
| 2026-04-25 17:57 | 37.64776 | -86.66350 | 36923 ft | 460 kts | 172° |
| 2026-04-25 17:57 | 37.58596 | -86.64437 | 36917 ft | 460 kts | 172° |
| 2026-04-25 17:58 | 37.52378 | -86.62516 | 36918 ft | 460 kts | 172° |
| 2026-04-25 17:58 | 37.46143 | -86.60593 | 36912 ft | 461 kts | 172° |
| 2026-04-25 17:59 | 37.39905 | -86.58672 | 36904 ft | 461 kts | 172° |
| 2026-04-25 17:59 | 37.33672 | -86.56756 | 36905 ft | 461 kts | 172° |
| 2026-04-25 18:00 | 37.27471 | -86.54853 | 36910 ft | 461 kts | 172° |
| 2026-04-25 18:00 | 37.21233 | -86.52942 | 36905 ft | 461 kts | 172° |
| 2026-04-25 18:01 | 37.15000 | -86.51035 | 36917 ft | 461 kts | 172° |
| 2026-04-25 18:01 | 37.08785 | -86.49137 | 36930 ft | 461 kts | 172° |
| 2026-04-25 18:02 | 37.02551 | -86.47237 | 36946 ft | 461 kts | 172° |
| 2026-04-25 18:02 | 36.96303 | -86.45335 | 36929 ft | 461 kts | 172° |
| 2026-04-25 18:03 | 36.90215 | -86.42660 | 36934 ft | 471 kts | 158° |
| 2026-04-25 18:03 | 36.84492 | -86.38735 | 36926 ft | 472 kts | 156° |
| 2026-04-25 18:04 | 36.78766 | -86.34727 | 36918 ft | 471 kts | 156° |
| 2026-04-25 18:04 | 36.73032 | -86.30776 | 36914 ft | 470 kts | 157° |
| 2026-04-25 18:05 | 36.67292 | -86.26872 | 36909 ft | 470 kts | 157° |
| 2026-04-25 18:05 | 36.61544 | -86.22982 | 36908 ft | 469 kts | 157° |
| 2026-04-25 18:06 | 36.55805 | -86.19104 | 36911 ft | 469 kts | 157° |
| 2026-04-25 18:06 | 36.50062 | -86.15228 | 36914 ft | 469 kts | 157° |
| 2026-04-25 18:07 | 36.44366 | -86.11389 | 36908 ft | 469 kts | 157° |
| 2026-04-25 18:07 | 36.38630 | -86.07530 | 36916 ft | 468 kts | 157° |
| 2026-04-25 18:08 | 36.32899 | -86.03681 | 36903 ft | 468 kts | 157° |
| 2026-04-25 18:08 | 36.27173 | -85.99842 | 36904 ft | 467 kts | 157° |
| 2026-04-25 18:09 | 36.21453 | -85.96012 | 36899 ft | 467 kts | 157° |
| 2026-04-25 18:09 | 36.15770 | -85.92214 | 36906 ft | 466 kts | 157° |
| 2026-04-25 18:10 | 36.10055 | -85.88401 | 36905 ft | 465 kts | 157° |
| 2026-04-25 18:10 | 36.04356 | -85.84604 | 36900 ft | 464 kts | 157° |
| 2026-04-25 18:11 | 35.98668 | -85.80822 | 36907 ft | 464 kts | 158° |
| 2026-04-25 18:11 | 35.92982 | -85.77048 | 36901 ft | 463 kts | 158° |
| 2026-04-25 18:12 | 35.87308 | -85.73287 | 36895 ft | 463 kts | 158° |
| 2026-04-25 18:12 | 35.81641 | -85.69537 | 36896 ft | 462 kts | 158° |
| 2026-04-25 18:13 | 35.76012 | -85.65818 | 36895 ft | 461 kts | 158° |
| 2026-04-25 18:13 | 35.70357 | -85.62089 | 36898 ft | 460 kts | 158° |
| 2026-04-25 18:14 | 35.61889 | -85.56515 | 36894 ft | 459 kts | 158° |
| 2026-04-25 18:14 | 35.56259 | -85.52817 | 36889 ft | 458 kts | 158° |
| 2026-04-25 18:15 | 35.50640 | -85.49131 | 36900 ft | 457 kts | 158° |
| 2026-04-25 18:15 | 35.45068 | -85.45483 | 36896 ft | 456 kts | 159° |
| 2026-04-25 18:16 | 35.39463 | -85.41818 | 36903 ft | 455 kts | 159° |
| 2026-04-25 18:17 | 35.31082 | -85.36350 | 36915 ft | 456 kts | 159° |
| 2026-04-25 18:17 | 35.25479 | -85.32702 | 36898 ft | 456 kts | 159° |
| 2026-04-25 18:18 | 35.19880 | -85.29061 | 36914 ft | 455 kts | 159° |
| 2026-04-25 18:18 | 35.14321 | -85.25452 | 36930 ft | 455 kts | 159° |
| 2026-04-25 18:19 | 35.08710 | -85.21816 | 36917 ft | 457 kts | 159° |
| 2026-04-25 18:19 | 35.03081 | -85.18171 | 36912 ft | 457 kts | 159° |
| 2026-04-25 18:20 | 34.97461 | -85.14538 | 36917 ft | 457 kts | 159° |
| 2026-04-25 18:20 | 34.91779 | -85.11165 | 36930 ft | 452 kts | 163° |
| 2026-04-25 18:21 | 34.86038 | -85.08143 | 36914 ft | 451 kts | 164° |
| 2026-04-25 18:21 | 34.80264 | -85.05130 | 36929 ft | 452 kts | 164° |
| 2026-04-25 18:22 | 34.75459 | -85.02594 | 36924 ft | 453 kts | 163° |
| 2026-04-25 18:22 | 34.69671 | -84.99519 | 36934 ft | 453 kts | 163° |
| 2026-04-25 18:23 | 34.63877 | -84.96438 | 36921 ft | 455 kts | 163° |
| 2026-04-25 18:23 | 34.58071 | -84.93354 | 36914 ft | 455 kts | 163° |
| 2026-04-25 18:24 | 34.52307 | -84.90299 | 36918 ft | 454 kts | 163° |
| 2026-04-25 18:24 | 34.46522 | -84.87238 | 36921 ft | 454 kts | 163° |
| 2026-04-25 18:25 | 34.40736 | -84.84182 | 36926 ft | 453 kts | 163° |
| 2026-04-25 18:25 | 34.34944 | -84.81127 | 36922 ft | 454 kts | 163° |
| 2026-04-25 18:26 | 34.29138 | -84.78069 | 36925 ft | 455 kts | 163° |
| 2026-04-25 18:26 | 34.23326 | -84.75014 | 36931 ft | 456 kts | 163° |
| 2026-04-25 18:27 | 34.17494 | -84.71951 | 36929 ft | 457 kts | 163° |
| 2026-04-25 18:27 | 34.11680 | -84.68903 | 36938 ft | 459 kts | 163° |
| 2026-04-25 18:28 | 34.05803 | -84.65827 | 36944 ft | 460 kts | 163° |
| 2026-04-25 18:28 | 33.99920 | -84.62751 | 36941 ft | 461 kts | 163° |
| 2026-04-25 18:29 | 33.91109 | -84.58154 | 36917 ft | 462 kts | 163° |
| 2026-04-25 18:30 | 33.79309 | -84.52012 | 36947 ft | 463 kts | 163° |
| 2026-04-25 18:30 | 33.73383 | -84.48935 | 36943 ft | 463 kts | 163° |
| 2026-04-25 18:31 | 33.67460 | -84.45863 | 36949 ft | 463 kts | 163° |
| 2026-04-25 18:31 | 33.61534 | -84.42756 | 36948 ft | 465 kts | 161° |
| 2026-04-25 18:32 | 33.55733 | -84.39343 | 36955 ft | 467 kts | 159° |
| 2026-04-25 18:32 | 33.49928 | -84.35802 | 36977 ft | 467 kts | 159° |
| 2026-04-25 18:33 | 33.44123 | -84.32292 | 36981 ft | 467 kts | 159° |
| 2026-04-25 18:33 | 33.38341 | -84.28835 | 36977 ft | 467 kts | 159° |
| 2026-04-25 18:34 | 33.32502 | -84.25363 | 36981 ft | 468 kts | 159° |
| 2026-04-25 18:34 | 33.26698 | -84.21917 | 36966 ft | 468 kts | 159° |
| 2026-04-25 18:35 | 33.20852 | -84.18451 | 36952 ft | 469 kts | 159° |
| 2026-04-25 18:35 | 33.14997 | -84.14984 | 36938 ft | 470 kts | 159° |
| 2026-04-25 18:36 | 33.09123 | -84.11510 | 36927 ft | 470 kts | 159° |
| 2026-04-25 18:36 | 33.03285 | -84.08063 | 36918 ft | 471 kts | 159° |
| 2026-04-25 18:37 | 32.97411 | -84.04600 | 36925 ft | 471 kts | 159° |
| 2026-04-25 18:37 | 32.91522 | -84.01133 | 36937 ft | 472 kts | 159° |
| 2026-04-25 18:38 | 32.85628 | -83.97668 | 36935 ft | 472 kts | 159° |
| 2026-04-25 18:38 | 32.79777 | -83.94234 | 36924 ft | 472 kts | 159° |
| 2026-04-25 18:39 | 32.73870 | -83.90772 | 36925 ft | 472 kts | 159° |
| 2026-04-25 18:39 | 32.67962 | -83.87315 | 36924 ft | 473 kts | 159° |
| 2026-04-25 18:40 | 32.62086 | -83.83881 | 36959 ft | 473 kts | 159° |
| 2026-04-25 18:40 | 32.56176 | -83.80432 | 36949 ft | 473 kts | 159° |
| 2026-04-25 18:41 | 32.50251 | -83.76980 | 36948 ft | 473 kts | 159° |
| 2026-04-25 18:41 | 32.44325 | -83.73532 | 36946 ft | 474 kts | 159° |
| 2026-04-25 18:42 | 32.39407 | -83.70675 | 36952 ft | 474 kts | 159° |
| 2026-04-25 18:42 | 32.32508 | -83.66672 | 36946 ft | 474 kts | 159° |
| 2026-04-25 18:43 | 32.26574 | -83.63235 | 36934 ft | 475 kts | 159° |
| 2026-04-25 18:43 | 32.20635 | -83.59800 | 36924 ft | 475 kts | 159° |
| 2026-04-25 18:44 | 32.14725 | -83.56386 | 36938 ft | 475 kts | 159° |
| 2026-04-25 18:44 | 32.08785 | -83.52961 | 36933 ft | 476 kts | 159° |
| 2026-04-25 18:45 | 32.02830 | -83.49531 | 36932 ft | 476 kts | 159° |
| 2026-04-25 18:45 | 31.96871 | -83.46105 | 36937 ft | 477 kts | 159° |
| 2026-04-25 18:46 | 31.90889 | -83.42670 | 36934 ft | 478 kts | 159° |
| 2026-04-25 18:46 | 31.84899 | -83.39235 | 36940 ft | 479 kts | 159° |
| 2026-04-25 18:47 | 31.78933 | -83.35819 | 36942 ft | 480 kts | 159° |
| 2026-04-25 18:47 | 31.72912 | -83.32375 | 36945 ft | 481 kts | 159° |
| 2026-04-25 18:48 | 31.66886 | -83.28933 | 36943 ft | 481 kts | 158° |
| 2026-04-25 18:48 | 31.60892 | -83.25526 | 36941 ft | 482 kts | 159° |
| 2026-04-25 18:49 | 31.54831 | -83.22136 | 36927 ft | 482 kts | 159° |
| 2026-04-25 18:49 | 31.51778 | -83.20435 | 36647 ft | 484 kts | 159° |
| 2026-04-25 18:49 | 31.48748 | -83.18745 | 36388 ft | 480 kts | 158° |
| 2026-04-25 18:50 | 31.45727 | -83.17059 | 36134 ft | 479 kts | 158° |
| 2026-04-25 18:50 | 31.42718 | -83.15380 | 35890 ft | 479 kts | 158° |
| 2026-04-25 18:50 | 31.39741 | -83.13720 | 35650 ft | 479 kts | 158° |
| 2026-04-25 18:50 | 31.36726 | -83.12040 | 35409 ft | 479 kts | 158° |
| 2026-04-25 18:51 | 31.33722 | -83.10366 | 35168 ft | 478 kts | 158° |
| 2026-04-25 18:51 | 31.32706 | -83.09800 | 35087 ft | 478 kts | 158° |
| 2026-04-25 18:51 | 31.27711 | -83.07020 | 34688 ft | 477 kts | 157° |
| 2026-04-25 18:51 | 31.24708 | -83.05351 | 34453 ft | 476 kts | 157° |
| 2026-04-25 18:52 | 31.21715 | -83.03688 | 34222 ft | 476 kts | 157° |
| 2026-04-25 18:52 | 31.18731 | -83.02031 | 33994 ft | 475 kts | 157° |
| 2026-04-25 18:52 | 31.15751 | -83.00378 | 33737 ft | 474 kts | 157° |
| 2026-04-25 18:52 | 31.12812 | -82.98748 | 33472 ft | 473 kts | 157° |
| 2026-04-25 18:53 | 31.09835 | -82.97098 | 33219 ft | 473 kts | 157° |
| 2026-04-25 18:53 | 31.06859 | -82.95451 | 32952 ft | 473 kts | 156° |
| 2026-04-25 18:53 | 31.03881 | -82.93803 | 32699 ft | 474 kts | 156° |
| 2026-04-25 18:53 | 31.00897 | -82.92153 | 32444 ft | 475 kts | 156° |
| 2026-04-25 18:54 | 30.94903 | -82.88841 | 31949 ft | 477 kts | 156° |
| 2026-04-25 18:54 | 30.91897 | -82.87183 | 31701 ft | 478 kts | 156° |
| 2026-04-25 18:54 | 30.88907 | -82.85480 | 31445 ft | 479 kts | 152° |
| 2026-04-25 18:55 | 30.86144 | -82.83305 | 31213 ft | 480 kts | 144° |
| 2026-04-25 18:55 | 30.83514 | -82.80919 | 30978 ft | 479 kts | 142° |
| 2026-04-25 18:55 | 30.80926 | -82.78477 | 30745 ft | 478 kts | 142° |
| 2026-04-25 18:55 | 30.78351 | -82.76040 | 30506 ft | 476 kts | 142° |
| 2026-04-25 18:56 | 30.75777 | -82.73634 | 30281 ft | 474 kts | 143° |
| 2026-04-25 18:56 | 30.73230 | -82.71290 | 30057 ft | 471 kts | 143° |
| 2026-04-25 18:56 | 30.70648 | -82.68941 | 29796 ft | 469 kts | 143° |
| 2026-04-25 18:56 | 30.68077 | -82.66621 | 29527 ft | 467 kts | 143° |
| 2026-04-25 18:57 | 30.65512 | -82.64314 | 29261 ft | 464 kts | 143° |
| 2026-04-25 18:57 | 30.62959 | -82.62023 | 28993 ft | 462 kts | 143° |
| 2026-04-25 18:57 | 30.60415 | -82.59741 | 28728 ft | 460 kts | 143° |
| 2026-04-25 18:58 | 30.55407 | -82.55248 | 28214 ft | 455 kts | 143° |
| 2026-04-25 18:58 | 30.50414 | -82.50771 | 27692 ft | 451 kts | 143° |
| 2026-04-25 18:58 | 30.47935 | -82.48550 | 27434 ft | 449 kts | 143° |
| 2026-04-25 18:59 | 30.43003 | -82.44135 | 26913 ft | 446 kts | 143° |
| 2026-04-25 18:59 | 30.38111 | -82.39762 | 26422 ft | 442 kts | 143° |
| 2026-04-25 19:00 | 30.33254 | -82.35426 | 25936 ft | 439 kts | 143° |
| 2026-04-25 19:00 | 30.30859 | -82.33221 | 25680 ft | 438 kts | 137° |
| 2026-04-25 19:01 | 30.27469 | -82.27467 | 25219 ft | 435 kts | 131° |
| 2026-04-25 19:01 | 30.25273 | -82.25109 | 25000 ft | 429 kts | 145° |
| 2026-04-25 19:01 | 30.22708 | -82.23366 | 24790 ft | 426 kts | 156° |
| 2026-04-25 19:01 | 30.19903 | -82.22313 | 24536 ft | 423 kts | 171° |
| 2026-04-25 19:02 | 30.14090 | -82.21426 | 24110 ft | 421 kts | 175° |
| 2026-04-25 19:02 | 30.11174 | -82.21034 | 24045 ft | 421 kts | 175° |
| 2026-04-25 19:02 | 30.08278 | -82.20626 | 24011 ft | 417 kts | 174° |
| 2026-04-25 19:03 | 30.04462 | -82.20057 | 24002 ft | 417 kts | 174° |
| 2026-04-25 19:03 | 29.99664 | -82.19313 | 23997 ft | 418 kts | 174° |
| 2026-04-25 19:03 | 29.96776 | -82.18863 | 23983 ft | 418 kts | 174° |
| 2026-04-25 19:04 | 29.91017 | -82.17964 | 23924 ft | 417 kts | 173° |
| 2026-04-25 19:04 | 29.88142 | -82.17440 | 23574 ft | 418 kts | 172° |
| 2026-04-25 19:05 | 29.82503 | -82.16284 | 22862 ft | 410 kts | 171° |
| 2026-04-25 19:05 | 29.76887 | -82.15129 | 22207 ft | 408 kts | 172° |
| 2026-04-25 19:05 | 29.74094 | -82.14565 | 21900 ft | 407 kts | 172° |
| 2026-04-25 19:06 | 29.71298 | -82.14006 | 21579 ft | 407 kts | 172° |
| 2026-04-25 19:06 | 29.65729 | -82.12898 | 20948 ft | 405 kts | 172° |
| 2026-04-25 19:06 | 29.62953 | -82.12347 | 20636 ft | 404 kts | 172° |
| 2026-04-25 19:07 | 29.57448 | -82.11253 | 20020 ft | 402 kts | 172° |
| 2026-04-25 19:07 | 29.54690 | -82.10706 | 19714 ft | 401 kts | 172° |
| 2026-04-25 19:08 | 29.50128 | -82.09803 | 19198 ft | 398 kts | 173° |
| 2026-04-25 19:08 | 29.46515 | -82.09087 | 18791 ft | 396 kts | 173° |
| 2026-04-25 19:09 | 29.39264 | -82.07655 | 17917 ft | 392 kts | 173° |
| 2026-04-25 19:09 | 29.37486 | -82.07304 | 17696 ft | 391 kts | 173° |
| 2026-04-25 19:09 | 29.31313 | -82.06063 | 16976 ft | 385 kts | 169° |
| 2026-04-25 19:10 | 29.28808 | -82.04941 | 16583 ft | 389 kts | 154° |
| 2026-04-25 19:10 | 29.26445 | -82.03436 | 16183 ft | 388 kts | 152° |
| 2026-04-25 19:10 | 29.24114 | -82.01909 | 15774 ft | 384 kts | 152° |
| 2026-04-25 19:10 | 29.21796 | -82.00398 | 15401 ft | 381 kts | 152° |
| 2026-04-25 19:11 | 29.19499 | -81.98922 | 15065 ft | 375 kts | 153° |
| 2026-04-25 19:11 | 29.17259 | -81.97500 | 14686 ft | 370 kts | 153° |
| 2026-04-25 19:11 | 29.15010 | -81.96082 | 14257 ft | 368 kts | 153° |
| 2026-04-25 19:11 | 29.12774 | -81.94677 | 13843 ft | 365 kts | 153° |
| 2026-04-25 19:12 | 29.10555 | -81.93284 | 13402 ft | 362 kts | 153° |
| 2026-04-25 19:12 | 29.08354 | -81.91904 | 12997 ft | 359 kts | 153° |
| 2026-04-25 19:12 | 29.06239 | -81.90416 | 12564 ft | 358 kts | 142° |
| 2026-04-25 19:12 | 29.04418 | -81.88488 | 12142 ft | 356 kts | 136° |
| 2026-04-25 19:13 | 29.02668 | -81.86511 | 11783 ft | 351 kts | 137° |
| 2026-04-25 19:13 | 29.00921 | -81.84583 | 11464 ft | 348 kts | 137° |
| 2026-04-25 19:13 | 28.99168 | -81.82687 | 11161 ft | 346 kts | 138° |
| 2026-04-25 19:13 | 28.97469 | -81.80765 | 10849 ft | 338 kts | 132° |
| 2026-04-25 19:14 | 28.96027 | -81.78714 | 10547 ft | 327 kts | 128° |
| 2026-04-25 19:14 | 28.95139 | -81.77342 | 10326 ft | 320 kts | 127° |
| 2026-04-25 19:14 | 28.93425 | -81.74670 | 9969 ft | 304 kts | 127° |
| 2026-04-25 19:14 | 28.92204 | -81.72806 | 9846 ft | 289 kts | 128° |
| 2026-04-25 19:15 | 28.90993 | -81.70988 | 9484 ft | 283 kts | 128° |
| 2026-04-25 19:15 | 28.89803 | -81.69217 | 9242 ft | 280 kts | 129° |
| 2026-04-25 19:15 | 28.88614 | -81.67456 | 8962 ft | 279 kts | 128° |
| 2026-04-25 19:15 | 28.87428 | -81.65702 | 8701 ft | 279 kts | 129° |
| 2026-04-25 19:16 | 28.86247 | -81.63955 | 8453 ft | 277 kts | 129° |
| 2026-04-25 19:16 | 28.85065 | -81.62207 | 8214 ft | 279 kts | 129° |
| 2026-04-25 19:16 | 28.83880 | -81.60455 | 7971 ft | 278 kts | 129° |
| 2026-04-25 19:16 | 28.82699 | -81.58707 | 7719 ft | 278 kts | 129° |
| 2026-04-25 19:17 | 28.81516 | -81.56959 | 7483 ft | 278 kts | 129° |
| 2026-04-25 19:17 | 28.80348 | -81.55235 | 7241 ft | 277 kts | 129° |
| 2026-04-25 19:17 | 28.79186 | -81.53517 | 6981 ft | 269 kts | 128° |
| 2026-04-25 19:17 | 28.78152 | -81.51783 | 6795 ft | 260 kts | 124° |
| 2026-04-25 19:18 | 28.77197 | -81.50060 | 6600 ft | 255 kts | 123° |
| 2026-04-25 19:18 | 28.76253 | -81.48360 | 6435 ft | 249 kts | 124° |
| 2026-04-25 19:18 | 28.75335 | -81.46721 | 6250 ft | 240 kts | 124° |
| 2026-04-25 19:18 | 28.74456 | -81.45160 | 6084 ft | 235 kts | 124° |
| 2026-04-25 19:19 | 28.73580 | -81.43586 | 5939 ft | 233 kts | 120° |
| 2026-04-25 19:19 | 28.73044 | -81.41844 | 5823 ft | 233 kts | 104° |
| 2026-04-25 19:19 | 28.72666 | -81.40061 | 5701 ft | 231 kts | 105° |
| 2026-04-25 19:19 | 28.72407 | -81.38883 | 5641 ft | 231 kts | 105° |
| 2026-04-25 19:20 | 28.71879 | -81.36556 | 5505 ft | 218 kts | 105° |
| 2026-04-25 19:20 | 28.71507 | -81.34938 | 5371 ft | 204 kts | 106° |
| 2026-04-25 19:20 | 28.71159 | -81.33432 | 5266 ft | 190 kts | 105° |
| 2026-04-25 19:20 | 28.70832 | -81.32022 | 5181 ft | 182 kts | 106° |
| 2026-04-25 19:21 | 28.70514 | -81.30656 | 5090 ft | 179 kts | 106° |
| 2026-04-25 19:21 | 28.69160 | -81.28553 | 4789 ft | 175 kts | 171° |
| 2026-04-25 19:21 | 28.67934 | -81.28517 | 4579 ft | 177 kts | 180° |
| 2026-04-25 19:22 | 28.66715 | -81.28493 | 4322 ft | 171 kts | 180° |
| 2026-04-25 19:22 | 28.65546 | -81.28472 | 4118 ft | 166 kts | 180° |
| 2026-04-25 19:22 | 28.63323 | -81.28446 | 3710 ft | 150 kts | 180° |
| 2026-04-25 19:23 | 28.62309 | -81.28436 | 3502 ft | 143 kts | 180° |
| 2026-04-25 19:23 | 28.60245 | -81.28415 | 3127 ft | 149 kts | 180° |
| 2026-04-25 19:23 | 28.59210 | -81.28404 | 2932 ft | 147 kts | 180° |
| 2026-04-25 19:24 | 28.58184 | -81.28394 | 2735 ft | 147 kts | 180° |
| 2026-04-25 19:24 | 28.57159 | -81.28385 | 2548 ft | 147 kts | 180° |
| 2026-04-25 19:24 | 28.55122 | -81.28364 | 2173 ft | 147 kts | 180° |
| 2026-04-25 19:25 | 28.53073 | -81.28344 | 1791 ft | 146 kts | 180° |
| 2026-04-25 19:25 | 28.52064 | -81.28334 | 1610 ft | 146 kts | 180° |
| 2026-04-25 19:25 | 28.51050 | -81.28324 | 1407 ft | 145 kts | 180° |
| 2026-04-25 19:26 | 28.50037 | -81.28314 | 1218 ft | 146 kts | 180° |
| 2026-04-25 19:26 | 28.49029 | -81.28304 | 1056 ft | 145 kts | 179° |
| 2026-04-25 19:26 | 28.48015 | -81.28292 | 837 ft | 145 kts | 180° |
| 2026-04-25 19:26 | 28.47026 | -81.28290 | 672 ft | 142 kts | 181° |
| 2026-04-25 19:27 | 28.46046 | -81.28260 | 487 ft | 143 kts | 180° |
| 2026-04-25 19:27 | 28.45375 | -81.28259 | 385 ft | 141 kts | 181° |
| 2026-04-25 19:27 | 28.44094 | -81.28249 | 132 ft | 136 kts | 180° |
| 2026-04-25 19:27 | 28.43226 | -81.28247 | 99 ft | 107 kts | 180° |
| 2026-04-25 19:28 | 28.42652 | -81.28244 | 104 ft | 50 kts | 187° |
| 2026-04-25 19:28 | 28.42547 | -81.28306 | 107 ft | 0 kts | 230° |
| 2026-04-25 19:28 | 28.42547 | -81.28307 | 107 ft | 1 kts | 230° |
| 2026-04-25 19:29 | 28.42525 | -81.28355 | 105 ft | 13 kts | 245° |
| 2026-04-25 19:29 | 28.42483 | -81.28481 | 105 ft | 20 kts | 249° |
| 2026-04-25 19:29 | 28.42430 | -81.28655 | 103 ft | 27 kts | 250° |
| 2026-04-25 19:29 | 28.42363 | -81.28868 | 107 ft | 30 kts | 251° |
| 2026-04-25 19:30 | 28.42296 | -81.29111 | 107 ft | 34 kts | 259° |
| 2026-04-25 19:30 | 28.42285 | -81.29399 | 103 ft | 39 kts | 270° |
| 2026-04-25 19:30 | 28.42281 | -81.29725 | 100 ft | 36 kts | 270° |
| 2026-04-25 19:30 | 28.42337 | -81.29800 | 101 ft | 10 kts | 2° |
| 2026-04-25 19:31 | 28.42430 | -81.29795 | 101 ft | 16 kts | 356° |
| 2026-04-25 19:31 | 28.42544 | -81.29795 | 102 ft | 16 kts | 360° |
| 2026-04-25 19:31 | 28.42656 | -81.29797 | 102 ft | 16 kts | 0° |
| 2026-04-25 19:31 | 28.42762 | -81.29797 | 102 ft | 15 kts | 360° |
| 2026-04-25 19:32 | 28.42865 | -81.29797 | 102 ft | 14 kts | 0° |
| 2026-04-25 19:32 | 28.42963 | -81.29798 | 102 ft | 14 kts | 358° |
| 2026-04-25 19:32 | 28.43057 | -81.29801 | 102 ft | 13 kts | 0° |
| 2026-04-25 19:32 | 28.43118 | -81.29801 | 102 ft | 13 kts | 0° |
| 2026-04-25 19:33 | 28.43249 | -81.29806 | 102 ft | 16 kts | 358° |
| 2026-04-25 19:33 | 28.43337 | -81.29856 | 101 ft | 15 kts | 271° |
| 2026-04-25 19:33 | 28.43295 | -81.29966 | 100 ft | 15 kts | 248° |
| 2026-04-25 19:33 | 28.43285 | -81.30079 | 100 ft | 14 kts | 284° |
| 2026-04-25 19:34 | 28.43332 | -81.30176 | 100 ft | 13 kts | 318° |
| 2026-04-25 19:34 | 28.43391 | -81.30187 | 100 ft | 1 kts | 20° |
| 2026-04-25 19:34 | 28.43397 | -81.30183 | 100 ft | 2 kts | 29° |
| 2026-04-25 19:34 | 28.43418 | -81.30168 | 100 ft | 5 kts | 33° |
| 2026-04-25 19:35 | 28.43441 | -81.30151 | 100 ft | 4 kts | 34° |
| 2026-04-25 19:35 | 28.43449 | -81.30144 | 100 ft | 0 kts | 34° |